Time;durP1;ratioP1;P1;durP2;ratioP2;P2;SDS_P1;SDS_P2;PMS_P1;PMS_P2;Temp;Humidity;BMP_temperature;BMP_pressure;BME280_temperature;BME280_humidity;BME280_pressure;Samples;Min_cycle;Max_cycle;Signal;HPM_P1;HPM_P2
2022/03/09 00:01:49;;;;;;;5.75;2.95;;;5.60;30.00;;;;;;2293574;55;20957;-62
2022/03/09 00:04:16;;;;;;;5.97;2.65;;;5.60;30.00;;;;;;2276878;56;21109;-62
2022/03/09 00:06:43;;;;;;;5.47;3.08;;;5.60;30.00;;;;;;2280015;56;21010;-63
2022/03/09 00:09:13;;;;;;;5.95;2.90;;;5.60;30.10;;;;;;2273235;55;20963;-63
2022/03/09 00:11:40;;;;;;;5.97;2.80;;;5.60;30.10;;;;;;2285737;55;20978;-63
2022/03/09 00:14:06;;;;;;;6.57;2.95;;;5.60;30.20;;;;;;2281247;56;21030;-63
2022/03/09 00:16:33;;;;;;;5.68;2.90;;;5.60;30.30;;;;;;2276412;56;21010;-62
2022/03/09 00:19:15;;;;;;;6.60;2.83;;;5.60;30.30;;;;;;2256963;56;21018;-62
2022/03/09 00:21:44;;;;;;;5.50;2.70;;;5.60;30.40;;;;;;2274708;56;21304;-62
2022/03/09 00:24:14;;;;;;;5.07;2.78;;;5.60;30.30;;;;;;2259886;56;21026;-63
2022/03/09 00:26:41;;;;;;;5.40;2.70;;;5.60;30.30;;;;;;2283987;56;20986;-63
2022/03/09 00:29:08;;;;;;;5.82;2.78;;;5.50;30.30;;;;;;2316133;55;20946;-62
2022/03/09 00:31:35;;;;;;;5.28;2.65;;;5.50;30.30;;;;;;2280085;56;21809;-62
2022/03/09 00:37:42;;;;;;;5.93;3.10;;;5.50;30.60;;;;;;2281389;56;20993;-62
2022/03/09 00:40:11;;;;;;;6.03;2.62;;;5.50;30.40;;;;;;2280242;56;21071;-63
2022/03/09 00:42:39;;;;;;;7.30;2.65;;;5.50;30.50;;;;;;2257581;56;20942;-63
2022/03/09 00:45:07;;;;;;;4.87;2.60;;;5.50;30.50;;;;;;2282955;56;20982;-62
2022/03/09 00:47:34;;;;;;;4.90;2.62;;;5.50;30.40;;;;;;2271394;56;21089;-62
2022/03/09 00:50:03;;;;;;;6.10;2.50;;;5.40;30.30;;;;;;2262668;56;21517;-63
2022/03/09 00:53:06;;;;;;;4.35;2.55;;;5.40;30.30;;;;;;2263480;56;21026;-62
2022/03/09 00:55:32;;;;;;;6.18;2.75;;;5.40;30.40;;;;;;2314191;55;21033;-62
2022/03/09 00:57:58;;;;;;;6.25;2.90;;;5.40;30.30;;;;;;2284443;56;20962;-63
2022/03/09 01:00:28;;;;;;;5.55;3.00;;;5.30;30.20;;;;;;2257629;56;21010;-62
2022/03/09 01:02:54;;;;;;;7.50;3.55;;;5.30;30.20;;;;;;2270805;56;21669;-62
2022/03/09 01:05:29;;;;;;;7.18;3.65;;;5.20;30.20;;;;;;2268088;56;21006;-63
2022/03/09 01:07:56;;;;;;;8.30;4.30;;;5.20;30.30;;;;;;2278664;56;21078;-62
2022/03/09 01:10:22;;;;;;;7.47;3.58;;;5.10;30.20;;;;;;2266963;56;21984;-63
2022/03/09 01:12:49;;;;;;;8.60;4.18;;;5.10;30.30;;;;;;2281254;55;20966;-62
2022/03/09 01:15:15;;;;;;;6.65;3.53;;;5.00;30.40;;;;;;2283773;56;21436;-63
2022/03/09 01:17:43;;;;;;;8.88;4.20;;;4.90;30.30;;;;;;2495654;55;20998;-63
2022/03/09 01:20:10;;;;;;;7.90;3.70;;;4.80;30.30;;;;;;2270484;56;20993;-63
2022/03/09 01:22:36;;;;;;;8.02;4.40;;;4.80;30.50;;;;;;2252155;56;21403;-63
2022/03/09 01:25:03;;;;;;;9.48;4.03;;;4.70;30.50;;;;;;2277768;56;21879;-63
2022/03/09 01:27:29;;;;;;;8.52;3.72;;;4.70;30.60;;;;;;2281901;56;21835;-62
2022/03/09 01:29:56;;;;;;;9.05;3.62;;;4.60;30.50;;;;;;2299441;55;20998;-63
2022/03/09 01:32:22;;;;;;;10.27;4.35;;;4.60;30.50;;;;;;2268017;56;21500;-63
2022/03/09 01:34:49;;;;;;;8.82;4.25;;;4.50;30.50;;;;;;2280226;56;20993;-62
2022/03/09 01:37:16;;;;;;;10.65;4.47;;;4.50;30.60;;;;;;2286257;55;21085;-63
2022/03/09 01:39:43;;;;;;;9.73;4.15;;;4.40;30.60;;;;;;2284057;56;21005;-62
2022/03/09 01:42:09;;;;;;;10.27;4.15;;;4.30;30.70;;;;;;2269161;56;21085;-62
2022/03/09 01:44:38;;;;;;;8.52;3.75;;;4.30;30.70;;;;;;2409928;55;22187;-62
2022/03/09 01:47:04;;;;;;;7.80;3.62;;;4.20;30.70;;;;;;2283324;56;20934;-62
2022/03/09 01:49:30;;;;;;;8.00;3.92;;;4.20;30.80;;;;;;2376331;55;20950;-62
2022/03/09 01:52:00;;;;;;;9.23;4.28;;;4.10;30.70;;;;;;2284818;55;20969;-63
2022/03/09 01:54:27;;;;;;;10.93;4.93;;;4.10;30.80;;;;;;2284292;56;20965;-63
2022/03/09 01:56:54;;;;;;;7.85;3.60;;;4.00;30.90;;;;;;2284358;56;20986;-63
2022/03/09 01:59:20;;;;;;;8.90;4.15;;;4.00;30.90;;;;;;2283568;56;21074;-62
2022/03/09 02:01:47;;;;;;;8.50;3.37;;;3.90;30.90;;;;;;2255156;56;21006;-62
2022/03/09 02:04:13;;;;;;;9.60;3.80;;;3.90;31.00;;;;;;2283352;56;20982;-62
2022/03/09 02:06:40;;;;;;;7.45;3.80;;;3.80;30.90;;;;;;2271287;56;20942;-62
2022/03/09 02:11:53;;;;;;;10.20;4.40;;;3.60;30.90;;;;;;2257019;56;21455;-62
2022/03/09 02:27:35;;;;;;;8.82;4.10;;;3.60;31.00;;;;;;2284188;56;20963;-63
2022/03/09 02:30:04;;;;;;;6.18;3.03;;;3.20;31.00;;;;;;2284131;56;21051;-62
2022/03/09 02:32:30;;;;;;;8.65;3.87;;;3.10;30.60;;;;;;2284122;56;21841;-64
2022/03/09 02:34:57;;;;;;;7.45;3.50;;;3.00;30.80;;;;;;2397811;55;21690;-64
2022/03/09 02:37:23;;;;;;;8.57;4.05;;;2.90;31.00;;;;;;2481335;55;21540;-64
2022/03/09 02:39:49;;;;;;;6.45;3.55;;;2.80;31.10;;;;;;2283882;56;21030;-63
2022/03/09 02:42:15;;;;;;;14.80;4.18;;;2.70;31.20;;;;;;2283861;56;21728;-63
2022/03/09 02:44:42;;;;;;;9.90;4.00;;;2.70;31.30;;;;;;2284132;56;21407;-63
2022/03/09 02:47:09;;;;;;;8.80;4.18;;;2.60;31.30;;;;;;2285396;56;20934;-64
2022/03/09 02:49:35;;;;;;;7.68;3.62;;;2.60;31.50;;;;;;2284032;56;20962;-63
2022/03/09 02:52:01;;;;;;;8.52;4.15;;;2.50;31.50;;;;;;2264681;56;20993;-64
2022/03/09 02:54:28;;;;;;;12.25;5.43;;;2.50;31.80;;;;;;2429503;55;20993;-63
2022/03/09 02:56:57;;;;;;;11.50;4.15;;;2.50;31.70;;;;;;2282628;56;20950;-62
2022/03/09 02:59:26;;;;;;;9.30;4.28;;;2.40;31.70;;;;;;2284722;56;20985;-66
2022/03/09 03:01:53;;;;;;;9.65;4.40;;;2.40;31.80;;;;;;2263059;56;20957;-63
2022/03/09 03:04:19;;;;;;;9.65;4.43;;;2.30;31.80;;;;;;2279196;56;21482;-64
2022/03/09 03:06:45;;;;;;;8.82;3.42;;;2.30;31.90;;;;;;2284075;56;21467;-63
2022/03/09 03:09:11;;;;;;;10.48;4.35;;;2.20;32.00;;;;;;2323318;55;21065;-63
2022/03/09 03:11:38;;;;;;;9.10;4.12;;;2.20;32.10;;;;;;2285383;56;21686;-64
2022/03/09 03:14:04;;;;;;;8.93;3.90;;;2.10;32.20;;;;;;2259849;56;21728;-63
2022/03/09 03:16:31;;;;;;;10.00;4.32;;;2.10;32.20;;;;;;2255419;56;20933;-63
2022/03/09 03:18:59;;;;;;;8.57;4.20;;;2.00;32.30;;;;;;2273506;56;21001;-63
2022/03/09 03:21:27;;;;;;;10.35;4.15;;;2.00;32.40;;;;;;2257663;56;21514;-63
2022/03/09 03:23:55;;;;;;;7.68;3.83;;;2.00;32.40;;;;;;2283372;56;21105;-63
2022/03/09 03:26:24;;;;;;;7.00;3.25;;;1.90;32.50;;;;;;2283655;56;20994;-64
2022/03/09 03:28:53;;;;;;;9.27;3.95;;;1.90;32.50;;;;;;2284154;56;20953;-63
2022/03/09 03:31:19;;;;;;;9.30;3.60;;;1.90;32.60;;;;;;2284163;56;21014;-64
2022/03/09 03:33:47;;;;;;;8.10;3.50;;;1.80;32.60;;;;;;2283793;56;21017;-63
2022/03/09 03:36:15;;;;;;;10.10;4.47;;;1.80;32.70;;;;;;2281973;56;20990;-63
2022/03/09 03:38:42;;;;;;;9.23;3.87;;;1.80;32.70;;;;;;2261199;56;20950;-63
2022/03/09 03:41:08;;;;;;;7.55;3.30;;;1.70;32.80;;;;;;2307074;55;20937;-63
2022/03/09 03:43:34;;;;;;;8.00;3.60;;;1.70;32.80;;;;;;2272972;56;20977;-64
2022/03/09 03:46:00;;;;;;;8.60;3.87;;;1.70;32.80;;;;;;2264523;56;20966;-63
2022/03/09 03:48:27;;;;;;;11.23;4.85;;;1.60;32.80;;;;;;2283774;56;21514;-63
2022/03/09 03:50:55;;;;;;;9.30;4.15;;;1.60;33.00;;;;;;2284392;56;21824;-63
2022/03/09 03:53:21;;;;;;;7.40;3.72;;;1.60;33.10;;;;;;2283508;56;21018;-64
2022/03/09 03:55:47;;;;;;;10.15;4.30;;;1.50;33.00;;;;;;2453335;55;21538;-62
2022/03/09 03:58:13;;;;;;;9.55;4.12;;;1.50;33.00;;;;;;2517196;55;20950;-63
2022/03/09 04:00:40;;;;;;;9.10;3.97;;;1.50;33.10;;;;;;2283398;56;21045;-62
2022/03/09 04:03:06;;;;;;;11.35;4.05;;;1.40;33.10;;;;;;2283377;56;20982;-63
2022/03/09 04:05:32;;;;;;;10.43;4.25;;;1.40;33.30;;;;;;2283479;56;20970;-64
2022/03/09 04:07:59;;;;;;;10.35;4.28;;;1.40;33.30;;;;;;2263362;56;20997;-64
2022/03/09 04:10:25;;;;;;;9.20;3.75;;;1.30;33.30;;;;;;2357301;55;20953;-63
2022/03/09 04:12:52;;;;;;;7.68;4.07;;;1.30;33.40;;;;;;2311103;55;21045;-63
2022/03/09 04:15:18;;;;;;;8.60;3.90;;;1.30;33.50;;;;;;2414077;55;20997;-64
2022/03/09 04:17:50;;;;;;;9.93;4.22;;;1.30;33.70;;;;;;2255345;56;20981;-63
2022/03/09 04:20:16;;;;;;;9.20;3.97;;;1.30;33.70;;;;;;2262176;56;21036;-63
2022/03/09 04:22:43;;;;;;;7.65;3.72;;;1.30;33.70;;;;;;2284062;56;20935;-63
2022/03/09 04:25:09;;;;;;;8.73;4.07;;;1.30;33.80;;;;;;2276992;56;21408;-63
2022/03/09 04:27:35;;;;;;;9.05;4.07;;;1.20;33.80;;;;;;2266631;56;21697;-64
2022/03/09 04:30:02;;;;;;;7.97;3.83;;;1.20;33.80;;;;;;2446435;55;21451;-63
2022/03/09 04:32:28;;;;;;;10.10;4.32;;;1.20;33.90;;;;;;2277833;56;20974;-63
2022/03/09 04:34:55;;;;;;;9.15;3.70;;;1.20;33.90;;;;;;2468787;55;20918;-63
2022/03/09 04:37:21;;;;;;;9.13;3.60;;;1.20;33.90;;;;;;2269896;56;21046;-64
2022/03/09 04:39:47;;;;;;;10.35;3.90;;;1.20;34.00;;;;;;2280776;56;21031;-64
2022/03/09 04:42:14;;;;;;;9.70;3.65;;;1.20;34.00;;;;;;2284049;56;20930;-64
2022/03/09 04:44:44;;;;;;;8.95;4.07;;;1.10;34.00;;;;;;2266187;56;21605;-63
2022/03/09 04:47:11;;;;;;;7.30;3.60;;;1.10;34.00;;;;;;2505065;55;21025;-63
2022/03/09 04:49:37;;;;;;;9.27;4.15;;;1.10;34.10;;;;;;2281322;56;20962;-64
2022/03/09 04:52:04;;;;;;;8.18;3.75;;;1.10;34.00;;;;;;2357543;55;20986;-63
2022/03/09 04:54:30;;;;;;;8.98;4.00;;;1.00;34.00;;;;;;2258807;56;20945;-63
2022/03/09 04:56:56;;;;;;;9.45;4.03;;;1.00;34.00;;;;;;2269951;56;20958;-63
2022/03/09 04:59:23;;;;;;;8.20;3.67;;;1.00;34.10;;;;;;2283756;56;20954;-63
2022/03/09 05:01:50;;;;;;;9.75;4.43;;;1.00;34.20;;;;;;2283250;56;20997;-64
2022/03/09 05:04:16;;;;;;;8.77;3.97;;;1.00;34.20;;;;;;2283184;56;21702;-64
2022/03/09 05:06:42;;;;;;;8.80;3.87;;;1.00;34.30;;;;;;2267752;56;21477;-63
2022/03/09 05:09:28;;;;;;;9.25;4.22;;;0.90;34.20;;;;;;2339991;56;21001;-64
2022/03/09 05:11:55;;;;;;;7.68;3.45;;;0.90;34.50;;;;;;2275005;56;21023;-64
2022/03/09 05:14:21;;;;;;;7.53;3.33;;;0.90;34.30;;;;;;2480967;55;20999;-63
2022/03/09 05:16:47;;;;;;;9.27;3.87;;;0.90;34.30;;;;;;2273353;56;21014;-63
2022/03/09 05:19:14;;;;;;;10.40;4.55;;;0.90;34.30;;;;;;2275521;56;21042;-63
2022/03/09 05:21:42;;;;;;;11.40;4.70;;;0.80;34.30;;;;;;2283384;56;20942;-63
2022/03/09 05:24:17;;;;;;;12.43;4.45;;;0.80;34.50;;;;;;2282776;56;20994;-63
2022/03/09 05:26:46;;;;;;;8.88;3.78;;;0.80;34.50;;;;;;2277109;56;20930;-63
2022/03/09 05:29:13;;;;;;;10.15;4.18;;;0.80;34.50;;;;;;2283711;56;21447;-64
2022/03/09 05:31:41;;;;;;;10.07;4.03;;;0.80;34.50;;;;;;2348021;55;20974;-63
2022/03/09 05:34:08;;;;;;;11.00;4.28;;;0.70;34.50;;;;;;2274278;56;21026;-64
2022/03/09 05:36:34;;;;;;;10.27;4.78;;;0.70;34.60;;;;;;2321129;55;21082;-64
2022/03/09 05:39:00;;;;;;;9.02;4.40;;;0.70;34.60;;;;;;2266720;56;21034;-63
2022/03/09 05:42:03;;;;;;;7.75;3.58;;;0.70;34.60;;;;;;2274725;56;21030;-64
2022/03/09 05:44:32;;;;;;;;;;;0.70;34.90;;;;;;2290771;56;20990;-62
2022/03/09 05:47:22;;;;;;;9.40;4.00;;;0.70;35.20;;;;;;2258774;56;20181;-64
2022/03/09 05:49:49;;;;;;;9.20;4.03;;;0.60;34.70;;;;;;2256476;56;21032;-62
2022/03/09 05:52:15;;;;;;;10.35;4.43;;;0.60;34.60;;;;;;2258321;56;20968;-64
2022/03/09 05:54:45;;;;;;;10.77;4.93;;;0.60;34.60;;;;;;2257413;56;20960;-63
2022/03/09 05:57:12;;;;;;;12.00;5.32;;;0.60;34.80;;;;;;2259596;56;20976;-63
2022/03/09 05:59:39;;;;;;;11.63;5.97;;;0.60;35.00;;;;;;2258530;56;21059;-63
2022/03/09 06:02:08;;;;;;;14.45;6.07;;;0.50;35.00;;;;;;2258338;56;20988;-63
2022/03/09 06:04:34;;;;;;;14.60;6.65;;;0.50;35.00;;;;;;2258290;56;21474;-63
2022/03/09 06:07:03;;;;;;;14.52;7.00;;;0.50;35.60;;;;;;2256057;56;20942;-64
2022/03/09 06:09:30;;;;;;;15.48;6.65;;;0.50;35.10;;;;;;2259611;55;20937;-63
2022/03/09 06:11:56;;;;;;;14.95;6.78;;;0.50;35.10;;;;;;2304539;55;21110;-63
2022/03/09 06:14:22;;;;;;;14.20;6.68;;;0.50;35.20;;;;;;2273422;55;20948;-63
2022/03/09 06:20:21;;;;;;;12.37;5.87;;;0.50;35.60;;;;;;2254213;55;21477;-63
2022/03/09 06:22:47;;;;;;;14.07;6.90;;;0.50;35.40;;;;;;2280191;56;20942;-63
2022/03/09 06:25:16;;;;;;;15.77;6.90;;;0.50;35.40;;;;;;2283828;56;21571;-63
2022/03/09 06:27:48;;;;;;;12.75;6.35;;;0.50;35.60;;;;;;2283002;56;21957;-64
2022/03/09 06:30:15;;;;;;;13.35;6.50;;;0.50;35.60;;;;;;2267185;56;21265;-64
2022/03/09 06:32:41;;;;;;;13.40;6.75;;;0.50;35.60;;;;;;2272099;56;20954;-63
2022/03/09 06:35:08;;;;;;;14.82;6.40;;;0.50;35.60;;;;;;2285066;56;21045;-64
2022/03/09 06:37:35;;;;;;;13.32;6.35;;;0.50;35.70;;;;;;2283968;56;21502;-63
2022/03/09 06:40:01;;;;;;;12.57;5.97;;;0.60;35.80;;;;;;2282819;56;21706;-63
2022/03/09 06:42:30;;;;;;;16.52;6.65;;;0.60;35.90;;;;;;2282710;56;21023;-64
2022/03/09 06:44:58;;;;;;;15.57;6.62;;;0.60;36.00;;;;;;2283928;56;21541;-63
2022/03/09 06:47:24;;;;;;;21.58;8.25;;;0.60;36.10;;;;;;2262822;56;20957;-63
2022/03/09 06:49:51;;;;;;;19.30;8.57;;;0.70;36.20;;;;;;2281134;56;20971;-63
2022/03/09 06:52:17;;;;;;;20.35;9.52;;;0.70;36.20;;;;;;2284021;56;21728;-64
2022/03/09 06:54:43;;;;;;;20.15;9.70;;;0.70;36.20;;;;;;2366378;55;20961;-63
2022/03/09 06:57:12;;;;;;;23.67;10.50;;;0.80;36.40;;;;;;2269097;56;21545;-64
2022/03/09 06:59:38;;;;;;;18.83;8.80;;;0.90;36.60;;;;;;2279185;56;20962;-64
2022/03/09 07:02:05;;;;;;;17.02;7.57;;;0.90;36.60;;;;;;2257848;56;20977;-65
2022/03/09 07:04:34;;;;;;;20.77;9.68;;;0.90;36.60;;;;;;2389386;55;21062;-64
2022/03/09 07:07:01;;;;;;;17.92;8.90;;;1.00;36.80;;;;;;2300265;55;20974;-64
2022/03/09 07:09:28;;;;;;;19.87;9.48;;;1.00;36.90;;;;;;2284243;56;21381;-63
2022/03/09 07:11:54;;;;;;;24.45;10.82;;;1.10;37.00;;;;;;2282962;56;21396;-63
2022/03/09 07:14:20;;;;;;;17.08;8.60;;;1.20;37.10;;;;;;2284294;56;21843;-63
2022/03/09 07:16:46;;;;;;;18.25;9.55;;;1.20;37.20;;;;;;2283977;56;21033;-66
2022/03/09 07:19:13;;;;;;;21.42;10.60;;;1.30;37.20;;;;;;2284209;56;21791;-64
2022/03/09 07:21:39;;;;;;;16.65;8.65;;;1.40;37.30;;;;;;2337309;55;20923;-64
2022/03/09 07:24:06;;;;;;;23.48;11.38;;;1.40;37.30;;;;;;2259689;56;20954;-64
2022/03/09 07:26:33;;;;;;;30.77;13.57;;;1.50;37.30;;;;;;2284491;56;21009;-63
2022/03/09 07:29:00;;;;;;;32.90;15.15;;;1.60;37.40;;;;;;2309180;55;21030;-64
2022/03/09 07:31:27;;;;;;;30.83;14.10;;;1.70;37.40;;;;;;2284028;56;20946;-64
2022/03/09 07:33:53;;;;;;;22.42;11.27;;;1.80;37.50;;;;;;2259024;56;20937;-64
2022/03/09 07:36:20;;;;;;;20.08;10.07;;;1.90;37.70;;;;;;2270319;56;20962;-63
2022/03/09 07:38:47;;;;;;;25.48;12.50;;;2.00;37.70;;;;;;2283739;56;21062;-64
2022/03/09 07:41:26;;;;;;;30.52;13.75;;;2.10;37.80;;;;;;2517164;55;20966;-63
2022/03/09 07:43:52;;;;;;;33.30;15.38;;;2.20;37.90;;;;;;2283979;55;21753;-63
2022/03/09 07:46:19;;;;;;;31.92;15.50;;;2.30;37.90;;;;;;2517346;55;20946;-63
2022/03/09 07:48:45;;;;;;;24.40;12.75;;;2.40;38.00;;;;;;2258018;56;21644;-63
2022/03/09 07:51:11;;;;;;;17.52;9.50;;;2.50;38.10;;;;;;2258570;55;20953;-62
2022/03/09 07:53:43;;;;;;;20.20;9.27;;;2.60;38.20;;;;;;2258687;55;21020;-63
2022/03/09 07:56:12;;;;;;;16.52;8.13;;;2.70;38.30;;;;;;2258489;55;20981;-63
2022/03/09 07:58:40;;;;;;;16.40;8.43;;;2.90;38.40;;;;;;2258777;56;21009;-63
2022/03/09 08:01:06;;;;;;;16.70;8.27;;;3.00;38.30;;;;;;2258681;56;20949;-63
2022/03/09 08:03:32;;;;;;;15.82;8.38;;;3.10;38.40;;;;;;2258283;56;20987;-63
2022/03/09 08:06:01;;;;;;;14.07;7.75;;;3.30;38.40;;;;;;2258447;56;20953;-64
2022/03/09 08:08:28;;;;;;;17.20;8.60;;;3.40;38.40;;;;;;2257598;56;21521;-62
2022/03/09 08:10:54;;;;;;;12.90;7.15;;;3.50;39.00;;;;;;2258347;56;21885;-62
2022/03/09 08:13:21;;;;;;;11.98;6.00;;;3.70;38.60;;;;;;2258851;56;20989;-63
2022/03/09 08:15:47;;;;;;;13.13;6.53;;;3.80;38.50;;;;;;2258718;55;21104;-63
2022/03/09 08:18:14;;;;;;;11.82;6.00;;;3.90;38.40;;;;;;2265352;55;20949;-63
2022/03/09 08:20:40;;;;;;;10.45;5.37;;;4.10;38.50;;;;;;2260057;56;21020;-63
2022/03/09 08:23:08;;;;;;;8.63;4.37;;;4.30;38.60;;;;;;2293189;55;21142;-63
2022/03/09 08:25:35;;;;;;;10.70;4.78;;;4.40;38.60;;;;;;2257660;56;20961;-62
2022/03/09 08:28:02;;;;;;;7.40;3.80;;;4.70;39.00;;;;;;2251420;56;21025;-64
2022/03/09 08:30:28;;;;;;;7.70;4.20;;;4.90;39.30;;;;;;2247959;56;21030;-63
2022/03/09 08:32:55;;;;;;;6.70;3.95;;;5.30;40.30;;;;;;2269170;56;21042;-64
2022/03/09 08:35:22;;;;;;;11.18;6.10;;;5.60;39.90;;;;;;2254158;56;21029;-65
2022/03/09 08:37:48;;;;;;;10.73;6.05;;;6.00;39.90;;;;;;2283914;55;21398;-63
2022/03/09 08:40:15;;;;;;;8.65;4.93;;;6.30;39.50;;;;;;2290229;56;21497;-64
2022/03/09 08:42:41;;;;;;;9.82;5.50;;;6.60;39.20;;;;;;2300710;55;21000;-64
2022/03/09 08:45:09;;;;;;;13.20;5.62;;;6.90;39.30;;;;;;2351644;55;21513;-64
2022/03/09 08:47:37;;;;;;;12.77;6.03;;;7.20;39.40;;;;;;2288829;55;22089;-64
2022/03/09 08:50:03;;;;;;;10.95;6.22;;;7.50;39.30;;;;;;2326170;55;20979;-64
2022/03/09 08:52:44;;;;;;;10.32;6.20;;;7.80;39.60;;;;;;2289740;56;22574;-64
2022/03/09 08:55:31;;;;;;;11.50;6.35;;;8.10;39.60;;;;;;2271352;55;22120;-64
2022/03/09 08:58:00;;;;;;;12.63;6.60;;;8.50;39.40;;;;;;2263402;56;21794;-63
2022/03/09 09:00:26;;;;;;;13.82;6.68;;;8.70;39.70;;;;;;2313378;55;21016;-65
2022/03/09 09:03:38;;;;;;;12.00;6.50;;;9.00;38.90;;;;;;2293202;55;20978;-64
2022/03/09 09:06:05;;;;;;;11.05;6.05;;;9.30;38.50;;;;;;2284303;56;21040;-65
2022/03/09 09:08:37;;;;;;;10.88;5.50;;;9.50;38.30;;;;;;2274560;55;21041;-65
2022/03/09 09:11:10;;;;;;;11.10;6.03;;;9.70;38.10;;;;;;2285149;58;21074;-64
2022/03/09 09:14:04;;;;;;;10.95;6.55;;;9.80;37.90;;;;;;2312829;55;21091;-64
2022/03/09 09:16:31;;;;;;;9.68;5.40;;;10.00;36.70;;;;;;2283376;55;21052;-65
2022/03/09 09:18:58;;;;;;;10.07;5.57;;;10.20;36.70;;;;;;2273345;55;21110;-64
2022/03/09 09:21:26;;;;;;;12.40;5.18;;;10.40;36.70;;;;;;2266618;56;21000;-65
2022/03/09 09:24:02;;;;;;;7.93;4.85;;;10.50;36.40;;;;;;2282445;57;21019;-65
2022/03/09 09:27:05;;;;;;;7.40;4.57;;;10.60;36.20;;;;;;2271574;56;21055;-65
2022/03/09 09:29:32;;;;;;;8.25;4.82;;;10.80;36.20;;;;;;2275654;56;20973;-64
2022/03/09 09:31:59;;;;;;;8.23;4.85;;;10.90;36.50;;;;;;2261843;56;20976;-65
2022/03/09 09:34:34;;;;;;;11.60;5.75;;;11.10;36.70;;;;;;2340297;55;20992;-65
2022/03/09 09:37:02;;;;;;;9.90;5.32;;;11.30;36.70;;;;;;2290929;56;20959;-66
2022/03/09 09:39:30;;;;;;;10.38;6.35;;;11.50;37.20;;;;;;2290340;56;21582;-65
2022/03/09 09:41:59;;;;;;;8.65;5.47;;;11.70;37.30;;;;;;2291469;56;20947;-65
2022/03/09 09:44:26;;;;;;;9.43;6.12;;;11.90;37.30;;;;;;2265956;56;21010;-66
2022/03/09 09:46:53;;;;;;;10.07;5.93;;;12.10;37.30;;;;;;2287088;56;21068;-65
2022/03/09 09:49:37;;;;;;;10.32;6.45;;;12.40;37.20;;;;;;2264725;56;21023;-65
2022/03/09 09:52:07;;;;;;;9.68;5.70;;;12.60;36.60;;;;;;2288166;56;21135;-64
2022/03/09 09:54:34;;;;;;;9.68;5.72;;;12.90;36.60;;;;;;2289941;56;20972;-66
2022/03/09 09:57:27;;;;;;;10.43;6.30;;;13.10;36.50;;;;;;2264003;56;21001;-66
2022/03/09 10:00:38;;;;;;;10.65;5.95;;;13.40;36.30;;;;;;2300539;55;20988;-66
2022/03/09 10:03:38;;;;;;;10.13;6.57;;;13.80;35.70;;;;;;2270218;56;21010;-66
2022/03/09 10:07:13;;;;;;;9.65;6.00;;;14.10;35.70;;;;;;2354650;56;21151;-65
2022/03/09 10:13:16;;;;;;;11.23;5.85;;;14.90;36.00;;;;;;2319710;55;21040;-66
2022/03/09 10:15:46;;;;;;;10.00;6.10;;;15.30;36.90;;;;;;2307865;55;20976;-65
2022/03/09 10:18:20;;;;;;;10.95;6.62;;;15.60;36.80;;;;;;2286787;55;21801;-65
2022/03/09 10:24:16;;;;;;;10.85;7.15;;;16.20;35.60;;;;;;2271202;56;21027;-65
2022/03/09 10:26:45;;;;;;;9.90;6.80;;;16.50;36.20;;;;;;2286575;56;20980;-66
2022/03/09 10:29:30;;;;;;;11.15;6.95;;;16.80;35.80;;;;;;2282971;56;21096;-67
2022/03/09 10:35:53;;;;;;;11.32;7.05;;;17.50;35.00;;;;;;2276565;55;21543;-66
2022/03/09 10:38:24;;;;;;;9.48;6.45;;;17.90;34.70;;;;;;2288550;56;21114;-66
2022/03/09 10:40:56;;;;;;;9.40;6.93;;;18.20;35.20;;;;;;2288949;56;21063;-66
2022/03/09 10:43:28;;;;;;;9.63;6.30;;;18.50;35.10;;;;;;2256044;56;20979;-66
2022/03/09 10:46:01;;;;;;;9.07;5.57;;;18.80;34.90;;;;;;2273362;56;20964;-66
2022/03/09 10:48:50;;;;;;;9.10;6.15;;;19.10;34.40;;;;;;2277585;56;21009;-67
2022/03/09 10:51:31;;;;;;;9.20;5.97;;;19.40;34.50;;;;;;2267811;56;21017;-65
2022/03/09 10:53:58;;;;;;;10.38;6.90;;;19.60;33.30;;;;;;2274648;56;20976;-65
2022/03/09 10:56:29;;;;;;;10.52;7.05;;;19.80;33.60;;;;;;2289586;55;20996;-65
2022/03/09 10:58:56;;;;;;;11.23;6.95;;;20.00;33.10;;;;;;2288637;56;21048;-67
2022/03/09 11:01:23;;;;;;;9.60;6.80;;;20.10;32.70;;;;;;2290024;56;21099;-67
2022/03/09 11:03:53;;;;;;;10.40;6.43;;;20.20;32.20;;;;;;2267632;56;21497;-65
2022/03/09 11:06:46;;;;;;;11.35;7.93;;;20.20;31.80;;;;;;2272828;56;20999;-67
2022/03/09 11:09:17;;;;;;;10.73;7.00;;;20.20;31.00;;;;;;2288782;56;20948;-66
2022/03/09 11:11:53;;;;;;;10.82;7.45;;;20.10;30.80;;;;;;2289519;56;20960;-67
2022/03/09 11:14:20;;;;;;;9.13;6.30;;;20.10;30.00;;;;;;2290029;56;20967;-68
2022/03/09 11:16:50;;;;;;;12.05;6.82;;;20.00;30.20;;;;;;2278640;56;21601;-67
2022/03/09 11:19:21;;;;;;;10.23;6.72;;;19.90;30.00;;;;;;2279079;56;20964;-65
2022/03/09 11:21:47;;;;;;;11.05;7.10;;;19.80;30.00;;;;;;2289284;56;21031;-66
2022/03/09 11:24:21;;;;;;;9.27;6.50;;;19.70;29.90;;;;;;2265628;55;20956;-67
2022/03/09 11:26:59;;;;;;;10.68;7.12;;;19.60;30.00;;;;;;2263331;56;21034;-66
2022/03/09 11:33:41;;;;;;;10.60;6.28;;;19.60;29.50;;;;;;2272833;55;21060;-66
2022/03/09 11:38:00;;;;;;;10.10;5.90;;;19.60;29.60;;;;;;2400403;55;20999;-67
2022/03/09 11:40:27;;;;;;;11.00;6.97;;;19.60;29.50;;;;;;2293223;55;21032;-67
2022/03/09 11:46:02;;;;;;;10.27;7.25;;;19.60;30.30;;;;;;2276379;56;21593;-66
2022/03/09 11:48:57;;;;;;;11.93;7.10;;;19.70;30.20;;;;;;2303065;55;21127;-67
2022/03/09 11:52:27;;;;;;;12.27;7.35;;;19.90;29.70;;;;;;2259403;56;21756;-66
2022/03/09 11:55:19;;;;;;;12.07;7.10;;;19.90;29.10;;;;;;2268591;56;21083;-65
2022/03/09 12:00:04;;;;;;;11.65;7.72;;;19.90;29.10;;;;;;2278281;55;21168;-65
2022/03/09 12:03:13;;;;;;;11.32;6.87;;;19.80;29.10;;;;;;2284614;56;21905;-66
2022/03/09 12:08:56;;;;;;;11.30;7.62;;;19.80;29.30;;;;;;2281592;56;20969;-66
2022/03/09 12:11:28;;;;;;;12.65;7.90;;;19.80;29.20;;;;;;2256500;56;21020;-67
2022/03/09 12:13:56;;;;;;;12.13;8.18;;;19.80;29.10;;;;;;2280436;56;21469;-66
2022/03/09 12:16:31;;;;;;;11.90;7.93;;;19.80;29.10;;;;;;2276359;56;21057;-67
2022/03/09 12:19:25;;;;;;;12.45;8.45;;;19.90;29.20;;;;;;2251751;56;20968;-66
2022/03/09 12:22:04;;;;;;;12.90;8.70;;;20.00;29.30;;;;;;2278947;55;20976;-65
2022/03/09 12:24:56;;;;;;;12.77;7.95;;;20.20;29.10;;;;;;2316445;55;20955;-67
2022/03/09 12:27:23;;;;;;;12.13;7.57;;;20.30;29.10;;;;;;2330438;55;21000;-67
2022/03/09 12:29:58;;;;;;;11.65;7.68;;;20.40;29.30;;;;;;2284973;55;21050;-75
2022/03/09 12:32:28;;;;;;;14.32;8.32;;;20.50;29.00;;;;;;2290857;56;21115;-67
2022/03/09 12:34:58;;;;;;;13.88;8.57;;;20.60;29.20;;;;;;2289801;56;20995;-67
2022/03/09 12:37:30;;;;;;;12.93;7.90;;;20.70;29.20;;;;;;2275080;56;21004;-67
2022/03/09 12:39:58;;;;;;;12.13;7.75;;;20.80;29.20;;;;;;2280842;55;20963;-67
2022/03/09 12:42:25;;;;;;;12.55;8.05;;;20.90;29.20;;;;;;2338172;55;21023;-67
2022/03/09 12:44:56;;;;;;;13.00;7.97;;;21.10;29.40;;;;;;2292237;56;20972;-66
2022/03/09 12:47:23;;;;;;;13.32;7.97;;;21.20;29.10;;;;;;2265868;56;21028;-65
2022/03/09 12:49:52;;;;;;;13.93;8.05;;;21.30;29.30;;;;;;2273157;56;21024;-66
2022/03/09 12:52:21;;;;;;;12.65;8.38;;;21.40;29.00;;;;;;2284143;56;21800;-67
2022/03/09 12:54:56;;;;;;;12.50;7.82;;;21.50;28.70;;;;;;2284763;55;21073;-66
2022/03/09 12:57:28;;;;;;;13.32;8.10;;;21.70;28.70;;;;;;2272908;56;21604;-67
2022/03/09 13:00:17;;;;;;;15.23;8.75;;;21.70;28.30;;;;;;2289111;56;20967;-67
2022/03/09 13:03:00;;;;;;;13.95;7.85;;;21.70;27.90;;;;;;2289197;56;21083;-69
2022/03/09 13:05:28;;;;;;;13.15;7.87;;;21.80;27.70;;;;;;2268797;56;21505;-68
2022/03/09 13:08:05;;;;;;;12.50;8.00;;;21.90;28.20;;;;;;2288406;56;20960;-66
2022/03/09 13:11:05;;;;;;;12.52;8.10;;;21.90;27.80;;;;;;2288212;56;21012;-67
2022/03/09 13:13:36;;;;;;;11.12;7.10;;;22.00;27.70;;;;;;2292655;55;21020;-66
2022/03/09 13:16:03;;;;;;;11.82;7.18;;;22.00;28.00;;;;;;2299243;55;20981;-68
2022/03/09 13:19:13;;;;;;;12.07;7.85;;;22.10;27.90;;;;;;2268769;55;20985;-66
2022/03/09 13:21:40;;;;;;;19.92;14.13;;;22.10;27.80;;;;;;2248877;56;1602778;-69
2022/03/09 13:24:10;;;;;;;14.90;9.15;;;22.20;25.90;;;;;;2265414;56;20969;-68
2022/03/09 13:28:32;;;;;;;14.65;8.60;;;22.10;26.40;;;;;;2281581;55;20959;-68
2022/03/09 13:31:04;;;;;;;14.25;8.88;;;22.00;26.60;;;;;;2284767;56;21031;-66
2022/03/09 13:33:30;;;;;;;15.07;7.93;;;21.90;26.50;;;;;;2269466;56;20973;-68
2022/03/09 13:39:47;;;;;;;12.40;7.85;;;21.80;26.30;;;;;;2279726;56;21013;-67
2022/03/09 13:42:24;;;;;;;12.25;7.65;;;21.70;26.40;;;;;;2280402;56;21046;-67
2022/03/09 13:45:22;;;;;;;15.10;8.27;;;21.50;26.60;;;;;;2288193;56;20972;-67
2022/03/09 13:48:01;;;;;;;13.10;7.62;;;21.50;26.40;;;;;;2289599;56;21012;-66
2022/03/09 13:56:57;;;;;;;12.57;7.78;;;21.40;26.50;;;;;;2291471;56;21047;-68
2022/03/09 13:59:43;;;;;;;8.82;5.40;;;21.10;26.90;;;;;;2291114;56;21051;-67
2022/03/09 14:02:22;;;;;;;10.05;5.97;;;21.00;26.50;;;;;;2283019;56;20960;-70
2022/03/09 14:05:02;;;;;;;11.50;7.18;;;20.80;26.40;;;;;;2252158;56;21009;-71
2022/03/09 14:11:50;;;;;;;10.23;6.45;;;20.70;26.40;;;;;;2266667;55;20982;-69